Time;durP1;ratioP1;P1;durP2;ratioP2;P2;SDS_P1;SDS_P2;PMS_P1;PMS_P2;Temp;Humidity;BMP_temperature;BMP_pressure;BME280_temperature;BME280_humidity;BME280_pressure;Samples;Min_cycle;Max_cycle;Signal;HPM_P1;HPM_P2
2023/07/12 00:00:00;;;;;;;12.00;11.30;;;21.60;99.90;;;;;;10401431;28;20307;-79
2023/07/12 00:05:02;;;;;;;12.13;11.03;;;21.60;99.90;;;;;;10421547;28;20234;-79
2023/07/12 00:10:15;;;;;;;11.40;10.70;;;21.60;99.90;;;;;;10407814;28;20767;-78
2023/07/12 00:15:21;;;;;;;10.80;10.20;;;21.70;99.90;;;;;;10391948;28;20281;-79
2023/07/12 00:20:26;;;;;;;11.07;10.17;;;21.80;99.90;;;;;;10395471;28;20242;-79
2023/07/12 00:25:33;;;;;;;9.90;9.40;;;21.80;99.90;;;;;;10388348;28;20227;-78
2023/07/12 00:30:37;;;;;;;9.57;9.07;;;21.90;99.90;;;;;;10390092;28;20219;-80
2023/07/12 00:35:43;;;;;;;10.23;9.47;;;22.00;99.90;;;;;;10379213;28;20229;-78
2023/07/12 00:41:01;;;;;;;10.17;9.57;;;22.00;99.90;;;;;;10393595;28;20706;-79
2023/07/12 00:46:12;;;;;;;9.13;8.53;;;22.10;99.90;;;;;;10367030;28;20732;-79
2023/07/12 00:51:38;;;;;;;9.63;8.93;;;22.20;99.90;;;;;;10392838;28;20768;-79
2023/07/12 00:56:40;;;;;;;9.57;9.07;;;22.20;99.90;;;;;;10394888;28;20230;-79
2023/07/12 01:01:45;;;;;;;9.77;9.17;;;22.20;99.90;;;;;;10384802;28;20284;-80
2023/07/12 01:06:49;;;;;;;9.10;8.70;;;22.20;99.90;;;;;;10390598;28;20624;-77
2023/07/12 01:11:54;;;;;;;9.03;8.53;;;22.20;99.90;;;;;;10379920;28;20385;-78
2023/07/12 01:17:00;;;;;;;9.63;8.83;;;22.30;99.90;;;;;;10373491;28;20226;-79
2023/07/12 01:22:06;;;;;;;9.23;8.63;;;22.30;99.90;;;;;;10385840;28;20235;-78
2023/07/12 01:27:15;;;;;;;8.80;8.20;;;22.30;99.90;;;;;;10383561;28;20219;-77
2023/07/12 01:32:18;;;;;;;9.00;8.47;;;22.30;99.90;;;;;;10384618;28;20254;-78
2023/07/12 01:37:22;;;;;;;8.80;8.20;;;22.30;99.90;;;;;;10397043;28;20238;-79
2023/07/12 01:42:27;;;;;;;8.33;7.83;;;22.30;99.90;;;;;;10371850;28;20577;-79
2023/07/12 01:47:29;;;;;;;9.80;9.00;;;22.40;99.90;;;;;;10370449;28;20229;-79
2023/07/12 01:52:33;;;;;;;10.47;8.23;;;22.30;99.90;;;;;;10393851;28;20206;-79
2023/07/12 01:57:35;;;;;;;7.87;7.27;;;22.20;99.90;;;;;;10376966;28;20637;-78
2023/07/12 02:02:37;;;;;;;7.73;7.10;;;22.00;99.90;;;;;;10370603;28;20230;-79
2023/07/12 02:07:40;;;;;;;7.00;6.70;;;21.80;99.90;;;;;;10387488;28;20230;-79
2023/07/12 02:12:45;;;;;;;7.50;6.90;;;21.80;99.90;;;;;;10376728;28;20213;-79
2023/07/12 02:17:47;;;;;;;7.30;6.90;;;21.70;99.90;;;;;;10389414;28;20704;-79
2023/07/12 02:22:52;;;;;;;7.13;6.73;;;21.70;99.90;;;;;;10371956;28;20219;-79
2023/07/12 02:27:54;;;;;;;7.10;6.60;;;21.80;99.90;;;;;;10385408;28;20761;-79
2023/07/12 02:32:56;;;;;;;7.10;6.70;;;21.80;99.90;;;;;;10395684;28;20303;-79
2023/07/12 02:38:01;;;;;;;9.73;6.43;;;21.90;99.90;;;;;;10387857;28;20223;-79
2023/07/12 02:43:03;;;;;;;7.23;6.63;;;21.90;99.90;;;;;;10401960;28;20626;-78
2023/07/12 02:48:06;;;;;;;10.93;6.93;;;22.00;99.90;;;;;;10396118;28;20329;-77
2023/07/12 02:53:18;;;;;;;6.60;6.10;;;22.00;99.90;;;;;;10400153;28;20191;-79
2023/07/12 02:58:20;;;;;;;6.90;6.23;;;22.00;99.90;;;;;;10395964;28;20215;-79
2023/07/12 03:03:22;;;;;;;6.93;6.33;;;22.00;99.90;;;;;;10396095;28;20220;-79
2023/07/12 03:08:27;;;;;;;7.10;6.40;;;22.00;99.90;;;;;;10399441;28;20222;-79
2023/07/12 03:13:29;;;;;;;6.37;5.97;;;22.00;99.90;;;;;;10398338;28;20195;-77
2023/07/12 03:18:31;;;;;;;6.50;6.03;;;22.00;99.90;;;;;;10393294;28;20233;-78
2023/07/12 03:23:37;;;;;;;6.73;6.20;;;22.00;99.90;;;;;;10405248;28;20233;-78
2023/07/12 03:28:39;;;;;;;6.33;5.87;;;22.00;99.90;;;;;;10394196;28;20257;-78
2023/07/12 03:33:41;;;;;;;7.37;6.67;;;22.00;99.90;;;;;;10398318;28;20231;-79
2023/07/12 03:38:44;;;;;;;7.10;5.93;;;22.00;99.90;;;;;;10390543;28;20227;-79
2023/07/12 03:43:46;;;;;;;5.67;5.30;;;22.10;99.90;;;;;;10391075;28;20754;-77
2023/07/12 03:48:48;;;;;;;6.87;6.27;;;22.10;99.90;;;;;;10390337;28;20787;-78
2023/07/12 03:53:53;;;;;;;5.60;5.10;;;22.20;99.90;;;;;;10368958;28;20270;-79
2023/07/12 03:58:55;;;;;;;5.77;5.27;;;22.20;99.90;;;;;;10370422;28;20259;-79
2023/07/12 04:03:57;;;;;;;5.53;5.10;;;22.20;99.90;;;;;;10386612;28;20314;-78
2023/07/12 04:09:01;;;;;;;5.50;5.07;;;22.20;99.90;;;;;;10393535;28;20218;-79
2023/07/12 04:14:04;;;;;;;5.87;5.43;;;22.20;99.90;;;;;;10387109;28;20198;-79
2023/07/12 04:19:06;;;;;;;5.67;5.17;;;22.30;99.90;;;;;;10414101;28;20716;-78
2023/07/12 04:24:09;;;;;;;4.73;4.33;;;22.30;99.90;;;;;;10422294;28;20250;-79
2023/07/12 04:29:11;;;;;;;5.13;4.73;;;22.40;99.90;;;;;;10417711;28;20254;-79
2023/07/12 04:34:13;;;;;;;5.10;4.70;;;22.50;99.90;;;;;;10385101;28;20228;-78
2023/07/12 04:39:17;;;;;;;5.50;4.37;;;22.60;99.90;;;;;;10402665;28;20230;-78
2023/07/12 04:44:19;;;;;;;6.37;4.87;;;22.70;99.90;;;;;;10417256;28;20308;-79
2023/07/12 04:49:21;;;;;;;5.00;4.00;;;22.70;99.90;;;;;;10412994;28;20257;-79
2023/07/12 04:54:24;;;;;;;5.40;4.77;;;22.90;99.90;;;;;;10410699;28;20290;-80
2023/07/12 04:59:26;;;;;;;5.30;4.80;;;23.00;99.90;;;;;;10413280;28;20246;-78
2023/07/12 05:04:28;;;;;;;6.20;3.97;;;23.00;99.90;;;;;;10415901;28;20865;-79
2023/07/12 05:09:32;;;;;;;5.90;4.77;;;23.10;99.90;;;;;;10409737;28;20231;-79
2023/07/12 05:14:34;;;;;;;5.10;4.60;;;23.10;99.90;;;;;;10399812;28;20221;-80
2023/07/12 05:19:36;;;;;;;4.93;4.33;;;23.20;99.90;;;;;;10394234;28;20225;-79
2023/07/12 05:24:40;;;;;;;5.47;4.97;;;23.30;99.90;;;;;;10396016;28;20226;-79
2023/07/12 05:29:42;;;;;;;5.90;5.33;;;23.40;99.90;;;;;;10392125;28;20210;-79
2023/07/12 05:34:45;;;;;;;5.30;4.53;;;23.50;99.90;;;;;;10396815;28;20218;-79
2023/07/12 05:39:49;;;;;;;5.03;4.57;;;23.50;99.90;;;;;;10397549;28;20223;-79
2023/07/12 05:44:51;;;;;;;7.30;4.77;;;23.60;99.90;;;;;;10393424;28;20626;-80
2023/07/12 05:49:53;;;;;;;6.43;5.00;;;23.60;99.90;;;;;;10377928;28;20214;-78
2023/07/12 05:54:56;;;;;;;6.07;5.50;;;23.70;99.90;;;;;;10378942;28;20215;-78
2023/07/12 05:59:58;;;;;;;5.80;5.23;;;23.80;99.90;;;;;;10393172;28;20227;-79
2023/07/12 06:05:01;;;;;;;5.93;5.30;;;23.80;99.90;;;;;;10398910;28;20265;-80
2023/07/12 06:10:04;;;;;;;5.50;4.97;;;23.90;99.90;;;;;;10393206;28;20279;-79
2023/07/12 06:15:08;;;;;;;5.20;4.80;;;24.00;99.90;;;;;;10394759;28;20202;-78
2023/07/12 06:20:11;;;;;;;8.50;5.10;;;24.10;99.90;;;;;;10390443;28;20912;-79
2023/07/12 06:25:14;;;;;;;5.63;5.17;;;24.10;99.90;;;;;;10389575;28;20237;-79
2023/07/12 06:30:17;;;;;;;7.97;6.00;;;24.10;99.90;;;;;;10393604;28;20329;-80
2023/07/12 06:35:19;;;;;;;8.63;5.80;;;24.20;99.90;;;;;;10401880;28;20206;-79
2023/07/12 06:40:22;;;;;;;8.10;6.53;;;24.40;99.90;;;;;;10386138;28;20218;-78
2023/07/12 06:45:24;;;;;;;6.67;5.40;;;24.60;99.90;;;;;;10393439;28;20222;-79
2023/07/12 06:50:27;;;;;;;6.00;5.23;;;24.90;99.90;;;;;;10364017;28;20224;-78
2023/07/12 06:55:30;;;;;;;6.17;5.47;;;25.20;99.90;;;;;;10379092;28;20195;-80
2023/07/12 07:00:32;;;;;;;5.90;4.90;;;25.30;99.90;;;;;;10390334;28;20219;-79
2023/07/12 07:05:34;;;;;;;6.43;5.80;;;25.60;99.90;;;;;;10391013;28;20231;-79
2023/07/12 07:10:38;;;;;;;5.43;4.93;;;25.90;99.90;;;;;;10400396;28;20326;-78
2023/07/12 07:15:40;;;;;;;7.67;5.10;;;26.20;99.90;;;;;;10399326;28;20202;-77
2023/07/12 07:20:43;;;;;;;8.93;5.37;;;26.30;99.90;;;;;;10398877;28;20245;-79
2023/07/12 07:25:46;;;;;;;5.17;4.77;;;26.20;99.90;;;;;;10395829;28;20237;-78
2023/07/12 07:30:53;;;;;;;4.40;4.00;;;26.30;99.90;;;;;;10392440;28;20262;-79
2023/07/12 07:35:56;;;;;;;3.97;3.63;;;26.50;99.90;;;;;;10404310;28;20269;-79
2023/07/12 07:40:59;;;;;;;4.27;3.90;;;26.70;99.90;;;;;;10391998;28;20286;-78
2023/07/12 07:46:01;;;;;;;5.37;3.80;;;26.90;99.90;;;;;;10349849;28;20219;-80
2023/07/12 07:51:04;;;;;;;4.47;4.07;;;27.10;99.90;;;;;;10396733;28;20218;-80
2023/07/12 07:56:07;;;;;;;4.80;4.33;;;27.40;99.90;;;;;;10371275;28;20787;-80
2023/07/12 08:01:09;;;;;;;4.30;4.00;;;27.80;99.90;;;;;;10408216;28;20727;-79
2023/07/12 08:06:12;;;;;;;5.03;3.90;;;28.20;99.90;;;;;;10368962;28;20230;-80
2023/07/12 08:11:15;;;;;;;4.43;4.03;;;28.60;99.90;;;;;;10419199;28;20242;-79
2023/07/12 08:16:18;;;;;;;8.43;4.90;;;29.10;99.90;;;;;;10398284;28;20298;-79
2023/07/12 08:21:20;;;;;;;5.40;4.07;;;29.40;99.90;;;;;;10420770;28;20230;-81
2023/07/12 08:26:23;;;;;;;3.80;3.50;;;29.80;99.90;;;;;;10395517;28;20713;-79
2023/07/12 08:31:25;;;;;;;5.30;4.87;;;30.10;99.90;;;;;;10422559;28;20276;-81
2023/07/12 08:36:28;;;;;;;6.80;4.10;;;30.60;98.60;;;;;;10421615;28;20198;-79
2023/07/12 08:41:31;;;;;;;4.93;4.43;;;30.80;96.10;;;;;;10420529;28;20308;-79
2023/07/12 08:46:42;;;;;;;5.40;3.40;;;31.00;94.20;;;;;;10420546;28;20764;-80
2023/07/12 08:51:45;;;;;;;4.83;4.43;;;31.20;94.40;;;;;;10418966;28;20206;-80
2023/07/12 08:56:50;;;;;;;3.27;3.00;;;31.30;93.30;;;;;;10422646;28;20203;-80
2023/07/12 09:01:58;;;;;;;3.60;3.30;;;31.50;92.30;;;;;;10421521;28;20202;-79
2023/07/12 09:07:02;;;;;;;4.47;4.07;;;31.60;90.90;;;;;;10416999;28;20721;-79
2023/07/12 09:12:21;;;;;;;3.50;3.30;;;31.90;90.80;;;;;;10407167;28;20537;-80
2023/07/12 09:17:25;;;;;;;3.30;3.00;;;32.00;88.70;;;;;;10398838;28;20302;-79
2023/07/12 09:22:30;;;;;;;3.47;3.23;;;32.10;86.50;;;;;;10406958;28;20276;-81
2023/07/12 09:27:35;;;;;;;3.33;3.00;;;32.20;89.10;;;;;;10375286;28;20295;-80
2023/07/12 09:32:42;;;;;;;4.30;3.60;;;32.50;86.40;;;;;;10405550;28;20542;-80
2023/07/12 09:37:44;;;;;;;5.20;3.20;;;32.70;83.60;;;;;;10393319;28;20219;-81
2023/07/12 09:42:49;;;;;;;3.50;2.97;;;32.90;82.80;;;;;;10393512;28;20210;-81
2023/07/12 09:48:02;;;;;;;3.60;3.30;;;33.50;79.20;;;;;;10395688;28;20244;-79
2023/07/12 09:53:09;;;;;;;3.07;2.87;;;34.10;78.30;;;;;;10384696;28;20206;-81
2023/07/12 09:58:21;;;;;;;3.50;3.20;;;34.80;77.20;;;;;;10403283;28;20210;-82
2023/07/12 10:03:27;;;;;;;3.70;3.30;;;35.70;72.90;;;;;;10396664;28;20201;-81
2023/07/12 10:08:41;;;;;;;3.30;3.10;;;36.60;70.60;;;;;;10368710;28;20345;-81
2023/07/12 10:13:48;;;;;;;3.97;3.60;;;37.70;66.20;;;;;;10381341;28;20225;-82
2023/07/12 10:18:50;;;;;;;3.97;2.97;;;37.90;63.10;;;;;;10399797;28;20231;-81
2023/07/12 10:23:55;;;;;;;5.38;3.53;;;38.20;61.90;;;;;;10403033;28;20230;-81
2023/07/12 10:29:04;;;;;;;3.80;3.50;;;38.60;59.70;;;;;;10353736;28;20234;-79
2023/07/12 10:34:25;;;;;;;5.83;4.17;;;37.70;58.40;;;;;;10383099;28;20316;-81
2023/07/12 10:39:28;;;;;;;4.03;3.63;;;36.20;62.00;;;;;;10387415;28;20225;-80
2023/07/12 10:44:34;;;;;;;11.67;4.23;;;34.80;65.90;;;;;;10393431;28;20230;-80
2023/07/12 10:49:43;;;;;;;6.20;4.10;;;33.70;64.70;;;;;;10404073;28;20229;-80
2023/07/12 10:55:03;;;;;;;5.50;3.47;;;32.80;67.00;;;;;;10380699;28;20210;-80
2023/07/12 11:00:25;;;;;;;4.33;3.93;;;32.10;70.00;;;;;;10395164;28;20221;-81
2023/07/12 11:05:39;;;;;;;4.77;3.83;;;31.50;68.00;;;;;;10368227;28;20314;-81
2023/07/12 11:10:43;;;;;;;4.53;4.13;;;31.10;71.40;;;;;;10384408;28;20375;-80
2023/07/12 11:16:02;;;;;;;3.87;3.47;;;30.90;68.60;;;;;;10393458;28;20202;-77
2023/07/12 11:21:06;;;;;;;7.50;3.90;;;30.60;72.50;;;;;;10398200;28;20218;-80
2023/07/12 11:26:22;;;;;;;4.20;3.80;;;30.40;72.10;;;;;;10394144;28;20249;-80
2023/07/12 11:31:33;;;;;;;5.67;4.03;;;30.20;70.80;;;;;;10464076;23;20699;-77
2023/07/12 11:36:37;;;;;;;4.60;4.20;;;29.90;73.90;;;;;;10504973;28;20209;-78
2023/07/12 11:41:40;;;;;;;4.93;4.63;;;29.80;75.60;;;;;;10504846;28;20385;-79
2023/07/12 11:46:44;;;;;;;5.27;4.10;;;29.80;73.50;;;;;;10504415;28;20303;-79
2023/07/12 11:51:49;;;;;;;4.83;4.33;;;29.70;74.70;;;;;;10503999;28;20232;-79
2023/07/12 11:56:52;;;;;;;7.23;4.90;;;29.70;76.20;;;;;;10501261;28;20739;-79
2023/07/12 12:01:56;;;;;;;4.93;4.53;;;29.70;75.70;;;;;;10502966;28;20663;-79
2023/07/12 12:07:00;;;;;;;4.43;4.13;;;29.80;76.80;;;;;;10501856;28;20228;-80
2023/07/12 12:12:06;;;;;;;4.30;3.90;;;29.90;73.60;;;;;;10503367;28;20234;-80
2023/07/12 12:17:15;;;;;;;5.67;4.50;;;30.00;72.40;;;;;;10496150;28;20288;-79
2023/07/12 12:22:19;;;;;;;4.47;4.07;;;29.90;71.70;;;;;;10503286;28;20274;-80
2023/07/12 12:27:23;;;;;;;4.23;3.90;;;29.80;70.60;;;;;;10499439;28;20596;-79
2023/07/12 12:32:26;;;;;;;5.57;4.43;;;29.60;72.20;;;;;;10502364;28;20237;-80
2023/07/12 12:37:29;;;;;;;6.80;4.37;;;29.50;72.90;;;;;;10503397;28;20212;-79
2023/07/12 12:42:32;;;;;;;5.03;4.63;;;29.40;75.10;;;;;;10503718;28;20229;-79
2023/07/12 12:47:36;;;;;;;4.30;3.90;;;29.40;77.80;;;;;;10503925;28;20224;-80
2023/07/12 12:52:38;;;;;;;4.37;4.07;;;29.40;77.50;;;;;;10501736;28;20603;-79
2023/07/12 12:57:41;;;;;;;4.60;4.23;;;29.50;75.80;;;;;;10478469;28;20205;-79
2023/07/12 13:02:45;;;;;;;5.07;4.57;;;29.40;70.90;;;;;;10502849;28;20304;-79
2023/07/12 13:07:48;;;;;;;8.07;4.60;;;29.30;73.90;;;;;;10490717;28;20221;-80
2023/07/12 13:12:51;;;;;;;4.90;4.23;;;29.40;74.30;;;;;;10501558;28;20217;-80
2023/07/12 13:17:54;;;;;;;6.10;4.30;;;29.50;75.70;;;;;;10489864;28;20701;-79
2023/07/12 13:22:57;;;;;;;4.30;3.97;;;29.60;73.70;;;;;;10494930;28;20218;-79
2023/07/12 13:28:00;;;;;;;6.27;4.63;;;29.70;74.10;;;;;;10490965;28;20294;-80
2023/07/12 13:33:03;;;;;;;4.73;4.33;;;29.60;71.60;;;;;;10500904;28;20674;-80
2023/07/12 13:38:09;;;;;;;4.67;4.27;;;29.50;71.50;;;;;;10500029;28;20201;-80
2023/07/12 13:43:12;;;;;;;5.57;5.07;;;29.50;72.80;;;;;;10502374;28;20724;-80
2023/07/12 13:48:19;;;;;;;3.40;3.20;;;29.40;74.20;;;;;;10502495;28;20658;-79
2023/07/12 13:53:21;;;;;;;4.00;3.40;;;29.30;75.60;;;;;;10499597;28;20567;-79
2023/07/12 13:58:23;;;;;;;7.07;4.57;;;29.10;77.30;;;;;;10500973;28;20208;-79
2023/07/12 14:03:26;;;;;;;4.40;4.00;;;29.00;77.10;;;;;;10510871;28;20204;-78
2023/07/12 14:08:29;;;;;;;4.53;4.20;;;29.00;79.20;;;;;;10504525;28;20228;-78
2023/07/12 14:13:31;;;;;;;3.97;3.67;;;29.00;77.80;;;;;;10497765;28;20255;-80
2023/07/12 14:18:34;;;;;;;4.40;4.00;;;28.90;79.20;;;;;;10498298;28;20239;-79
2023/07/12 14:23:36;;;;;;;5.23;4.10;;;28.90;78.30;;;;;;10498027;28;20559;-79
2023/07/12 14:28:38;;;;;;;7.63;3.67;;;28.90;77.70;;;;;;10494420;28;20225;-79
2023/07/12 14:33:42;;;;;;;3.60;3.10;;;29.00;78.80;;;;;;10498483;28;20201;-79
2023/07/12 14:38:45;;;;;;;4.03;3.73;;;28.90;77.80;;;;;;10497039;28;20585;-78
2023/07/12 14:43:47;;;;;;;5.80;3.87;;;28.80;78.40;;;;;;10487059;28;20236;-79
2023/07/12 14:48:51;;;;;;;4.10;3.67;;;28.80;78.00;;;;;;10465755;28;20220;-78
2023/07/12 14:53:53;;;;;;;3.73;3.43;;;28.90;77.70;;;;;;10494527;28;20216;-78
2023/07/12 14:58:56;;;;;;;5.03;3.40;;;28.90;77.30;;;;;;10496061;28;20214;-79
2023/07/12 15:04:00;;;;;;;3.70;3.40;;;28.80;78.20;;;;;;10493648;28;20296;-79
2023/07/12 15:09:15;;;;;;;3.83;3.53;;;28.70;78.10;;;;;;10497080;28;20599;-79
2023/07/12 15:14:17;;;;;;;3.90;3.60;;;28.60;78.50;;;;;;10498492;28;20205;-78
2023/07/12 15:19:20;;;;;;;3.03;2.83;;;28.50;80.70;;;;;;10498187;28;20524;-78
2023/07/12 15:24:22;;;;;;;5.40;4.17;;;28.50;77.40;;;;;;10480012;28;20247;-79
2023/07/12 15:29:25;;;;;;;3.47;3.17;;;28.50;76.40;;;;;;10494706;28;20217;-79
2023/07/12 15:34:28;;;;;;;3.90;3.50;;;28.50;76.40;;;;;;10464367;28;20266;-79
2023/07/12 15:39:31;;;;;;;5.67;4.90;;;28.50;76.60;;;;;;10488741;28;20233;-79
2023/07/12 15:44:33;;;;;;;5.17;4.40;;;28.60;76.80;;;;;;10496705;28;20307;-79
2023/07/12 15:49:37;;;;;;;3.33;3.13;;;28.60;77.00;;;;;;10483813;28;20620;-79
2023/07/12 15:54:39;;;;;;;9.57;3.37;;;28.70;76.40;;;;;;10496637;28;20258;-79
2023/07/12 15:59:41;;;;;;;4.73;2.80;;;28.70;75.90;;;;;;10497192;28;20229;-79
2023/07/12 16:04:47;;;;;;;3.47;3.00;;;28.70;76.10;;;;;;10496131;28;20210;-78
2023/07/12 16:09:49;;;;;;;3.93;3.07;;;28.70;76.70;;;;;;10494478;28;20217;-79
2023/07/12 16:14:52;;;;;;;4.40;3.00;;;28.60;76.30;;;;;;10495975;28;20201;-79
2023/07/12 16:19:55;;;;;;;3.10;2.90;;;28.50;75.40;;;;;;10466968;28;20712;-78
2023/07/12 16:24:57;;;;;;;2.90;2.70;;;28.30;75.40;;;;;;10488411;28;20208;-79
2023/07/12 16:30:00;;;;;;;2.93;2.73;;;28.20;75.60;;;;;;10499639;28;20283;-78
2023/07/12 16:35:04;;;;;;;6.00;3.37;;;28.10;74.10;;;;;;10485107;28;20296;-79
2023/07/12 16:40:09;;;;;;;3.17;2.87;;;28.10;75.50;;;;;;10501254;28;20252;-78
2023/07/12 16:45:25;;;;;;;3.77;3.47;;;28.00;75.10;;;;;;10499866;28;20225;-78
2023/07/12 16:50:28;;;;;;;3.07;2.87;;;28.00;73.70;;;;;;10501007;28;20690;-77
2023/07/12 16:55:32;;;;;;;2.90;2.70;;;27.90;76.50;;;;;;10500915;28;20209;-78
2023/07/12 17:00:34;;;;;;;3.87;3.57;;;27.90;74.20;;;;;;10499510;28;20224;-79
2023/07/12 17:05:39;;;;;;;6.00;3.47;;;27.90;74.20;;;;;;10489100;28;20221;-78
2023/07/12 17:10:41;;;;;;;3.40;3.00;;;27.80;73.70;;;;;;10496838;28;20236;-78
2023/07/12 17:15:45;;;;;;;3.57;2.90;;;27.80;73.30;;;;;;10500157;28;20224;-78
2023/07/12 17:20:51;;;;;;;2.60;2.50;;;27.80;72.80;;;;;;10499561;28;20237;-78
2023/07/12 17:25:53;;;;;;;9.20;3.50;;;27.70;74.10;;;;;;10497492;28;20283;-78
2023/07/12 17:31:00;;;;;;;3.10;2.90;;;27.60;73.40;;;;;;10520116;22;20665;-77
2023/07/12 17:36:05;;;;;;;5.23;3.23;;;27.60;73.40;;;;;;10508128;28;20571;-78
2023/07/12 17:41:17;;;;;;;4.20;3.23;;;27.50;74.50;;;;;;10514326;28;20223;-76
2023/07/12 17:46:19;;;;;;;3.13;2.83;;;27.50;75.50;;;;;;10511893;28;20594;-78
2023/07/12 17:51:24;;;;;;;3.80;3.50;;;27.40;74.30;;;;;;10506905;28;20233;-78
2023/07/12 17:56:26;;;;;;;4.30;2.97;;;27.30;73.70;;;;;;10505965;28;20570;-78
2023/07/12 18:01:30;;;;;;;3.60;2.97;;;27.30;74.70;;;;;;10502179;28;20255;-78
2023/07/12 18:06:34;;;;;;;3.30;3.00;;;27.30;74.10;;;;;;10505288;28;20225;-78
2023/07/12 18:11:39;;;;;;;2.93;2.70;;;27.20;74.70;;;;;;10501340;28;20244;-78
2023/07/12 18:16:42;;;;;;;2.10;1.90;;;27.10;74.30;;;;;;10501712;28;20225;-77
2023/07/12 18:21:45;;;;;;;3.87;2.77;;;27.10;75.20;;;;;;10518516;28;20696;-78
2023/07/12 18:26:48;;;;;;;2.80;2.60;;;26.90;74.70;;;;;;10513528;28;20638;-75
2023/07/12 18:31:50;;;;;;;2.77;2.57;;;26.90;78.20;;;;;;10471520;28;20298;-77
2023/07/12 18:36:53;;;;;;;2.70;2.50;;;26.90;78.50;;;;;;10496440;28;20275;-78
2023/07/12 18:41:57;;;;;;;2.97;2.77;;;26.80;80.50;;;;;;10485104;28;20285;-77
2023/07/12 18:46:59;;;;;;;2.80;2.60;;;26.80;77.60;;;;;;10501222;28;20212;-78
2023/07/12 18:52:03;;;;;;;4.87;2.93;;;26.80;75.80;;;;;;10503802;28;20258;-77
2023/07/12 18:57:08;;;;;;;3.77;3.00;;;26.70;75.70;;;;;;10491167;28;20193;-75
2023/07/12 19:02:14;;;;;;;2.50;2.10;;;26.60;75.70;;;;;;10482304;28;20320;-78
2023/07/12 19:07:23;;;;;;;2.53;2.33;;;26.60;76.20;;;;;;10495617;28;20306;-76
2023/07/12 19:12:26;;;;;;;3.60;2.50;;;26.50;75.90;;;;;;10505604;28;20313;-78
2023/07/12 19:17:28;;;;;;;2.50;2.30;;;26.40;76.50;;;;;;10500546;28;20205;-77
2023/07/12 19:22:31;;;;;;;2.60;2.40;;;26.40;73.90;;;;;;10507153;28;20655;-76
2023/07/12 19:27:34;;;;;;;2.10;2.00;;;26.20;77.00;;;;;;10490641;28;20225;-78
2023/07/12 19:32:36;;;;;;;4.83;2.80;;;26.20;78.70;;;;;;10507036;28;20710;-78
2023/07/12 19:37:39;;;;;;;2.30;2.20;;;26.10;78.40;;;;;;10506701;28;20292;-78
2023/07/12 19:42:42;;;;;;;2.53;2.30;;;26.00;78.90;;;;;;10507688;28;20243;-78
2023/07/12 19:47:44;;;;;;;2.13;2.03;;;25.90;77.90;;;;;;10509790;28;20253;-78
2023/07/12 19:52:48;;;;;;;2.30;2.10;;;25.80;76.20;;;;;;10513516;28;20281;-77
2023/07/12 19:57:52;;;;;;;3.10;2.90;;;25.70;76.40;;;;;;10514740;28;20250;-77
2023/07/12 20:02:54;;;;;;;2.60;2.40;;;25.60;78.90;;;;;;10510722;28;20650;-77
2023/07/12 20:07:57;;;;;;;2.50;2.30;;;25.60;81.20;;;;;;10513844;28;20279;-77
2023/07/12 20:13:00;;;;;;;2.67;2.50;;;25.50;77.10;;;;;;10519567;28;20244;-76
2023/07/12 20:18:02;;;;;;;2.50;2.07;;;25.40;80.40;;;;;;10508825;28;20201;-77
2023/07/12 20:23:05;;;;;;;4.80;4.40;;;25.40;84.30;;;;;;10517608;28;20382;-77
2023/07/12 20:28:07;;;;;;;2.93;2.73;;;25.30;83.70;;;;;;10486681;28;20624;-76
2023/07/12 20:33:09;;;;;;;3.93;3.50;;;25.30;84.20;;;;;;10496930;28;20286;-77
2023/07/12 20:38:13;;;;;;;9.10;3.67;;;25.20;83.60;;;;;;10516568;28;20873;-77
2023/07/12 20:43:15;;;;;;;2.50;2.30;;;25.20;83.20;;;;;;10507119;28;20220;-78
2023/07/12 20:48:17;;;;;;;2.20;2.10;;;25.20;83.70;;;;;;10496255;28;20217;-78
2023/07/12 20:53:23;;;;;;;3.23;2.77;;;25.10;84.40;;;;;;10503109;28;20703;-77
2023/07/12 20:58:25;;;;;;;3.20;2.90;;;25.00;83.90;;;;;;10505304;28;20216;-78
2023/07/12 21:03:27;;;;;;;2.37;2.27;;;24.90;83.60;;;;;;10498564;28;20761;-76
2023/07/12 21:08:31;;;;;;;3.67;2.37;;;24.70;83.50;;;;;;10501605;28;20269;-77
2023/07/12 21:13:34;;;;;;;2.70;2.50;;;24.60;84.40;;;;;;10510111;28;20248;-76
2023/07/12 21:18:36;;;;;;;2.60;2.40;;;24.40;84.40;;;;;;10477364;28;20518;-77
2023/07/12 21:23:40;;;;;;;2.87;2.10;;;24.40;85.20;;;;;;10505102;28;20227;-76
2023/07/12 21:28:42;;;;;;;2.20;2.10;;;24.20;84.60;;;;;;10499374;28;20227;-78
2023/07/12 21:33:44;;;;;;;2.20;2.00;;;24.20;85.10;;;;;;10512000;28;20240;-77
2023/07/12 21:38:48;;;;;;;2.20;2.10;;;24.10;85.50;;;;;;10518147;28;20208;-77
2023/07/12 21:43:50;;;;;;;5.23;2.50;;;24.00;85.90;;;;;;10519655;28;20295;-77
2023/07/12 21:48:52;;;;;;;2.80;2.27;;;24.00;86.10;;;;;;10489088;28;20845;-75
2023/07/12 21:53:56;;;;;;;2.17;2.07;;;24.00;88.40;;;;;;10508839;28;20300;-77
2023/07/12 21:58:58;;;;;;;2.10;2.00;;;24.10;87.40;;;;;;10492738;28;20566;-78
2023/07/12 22:04:00;;;;;;;2.23;2.13;;;24.10;87.70;;;;;;10514875;28;20200;-77
2023/07/12 22:09:07;;;;;;;2.60;2.30;;;24.20;85.30;;;;;;10497086;28;20225;-77
2023/07/12 22:14:09;;;;;;;2.27;2.17;;;24.20;85.60;;;;;;10492033;28;20262;-75
2023/07/12 22:19:11;;;;;;;2.23;2.10;;;24.20;85.40;;;;;;10515232;28;20572;-77
2023/07/12 22:24:15;;;;;;;4.90;2.20;;;24.20;84.10;;;;;;10522257;28;20196;-77
2023/07/12 22:29:17;;;;;;;2.53;2.40;;;24.30;84.70;;;;;;10506509;28;20217;-77
2023/07/12 22:34:19;;;;;;;2.10;2.00;;;24.20;85.50;;;;;;10477616;28;20273;-77
2023/07/12 22:39:23;;;;;;;3.53;2.00;;;24.20;85.30;;;;;;10509710;28;20266;-77
2023/07/12 22:44:25;;;;;;;2.20;2.10;;;24.20;86.70;;;;;;10515591;28;20671;-78
2023/07/12 22:49:27;;;;;;;2.17;2.07;;;24.20;86.10;;;;;;10517206;28;20220;-77
2023/07/12 22:54:30;;;;;;;2.97;2.17;;;24.20;81.50;;;;;;10519865;28;20570;-76
2023/07/12 22:59:32;;;;;;;2.87;2.10;;;24.20;84.50;;;;;;10511861;28;20228;-77
2023/07/12 23:04:36;;;;;;;2.27;2.07;;;24.20;84.10;;;;;;10510855;28;20232;-77
2023/07/12 23:09:39;;;;;;;2.87;2.20;;;24.30;84.60;;;;;;10503568;28;20712;-76
2023/07/12 23:14:43;;;;;;;2.73;2.53;;;24.30;82.40;;;;;;10511743;28;20212;-77
2023/07/12 23:19:45;;;;;;;2.53;1.90;;;24.30;82.80;;;;;;10500102;28;20221;-77
2023/07/12 23:24:50;;;;;;;2.43;2.23;;;24.30;80.70;;;;;;10504891;28;20220;-76
2023/07/12 23:29:52;;;;;;;2.43;2.27;;;24.20;79.80;;;;;;10519463;28;20342;-77
2023/07/12 23:34:57;;;;;;;3.20;2.10;;;24.10;80.10;;;;;;10506591;28;20653;-77
2023/07/12 23:40:00;;;;;;;1.97;1.87;;;24.00;79.30;;;;;;10513083;28;20220;-78
2023/07/12 23:45:03;;;;;;;1.90;1.80;;;24.00;80.60;;;;;;10493294;28;20208;-76
2023/07/12 23:50:06;;;;;;;3.10;2.13;;;23.90;78.20;;;;;;10506515;28;20237;-75
2023/07/12 23:55:10;;;;;;;2.53;2.33;;;23.80;81.00;;;;;;10498422;28;20196;-77
